createdAt,value
2018-02-15T00:00:32.045Z,19.62
2018-02-15T00:03:02.170Z,20.65
2018-02-15T00:05:31.475Z,20.05
2018-02-15T00:08:01.551Z,20.17
2018-02-15T00:10:30.863Z,20.50
2018-02-15T00:13:00.191Z,18.98
2018-02-15T00:15:30.297Z,19.58
2018-02-15T00:17:59.610Z,18.95
2018-02-15T00:20:28.924Z,18.87
2018-02-15T00:22:59.020Z,17.85
2018-02-15T00:25:28.364Z,18.83
2018-02-15T00:27:57.668Z,18.48
2018-02-15T00:30:27.014Z,17.42
2018-02-15T00:32:56.345Z,17.23
2018-02-15T00:35:25.692Z,17.73
2018-02-15T00:37:55.036Z,17.48
2018-02-15T00:40:25.285Z,17.30
2018-02-15T00:42:54.575Z,17.05
2018-02-15T00:45:23.939Z,16.92
2018-02-15T00:47:54.027Z,17.67
2018-02-15T00:50:23.340Z,17.10
2018-02-15T00:52:53.394Z,16.05
2018-02-15T00:55:22.748Z,14.43
2018-02-15T00:57:52.040Z,15.20
2018-02-15T01:00:21.364Z,15.80
2018-02-15T01:02:50.706Z,14.20
2018-02-15T01:05:20.560Z,15.38
2018-02-15T01:07:49.928Z,14.50
2018-02-15T01:10:19.971Z,14.25
2018-02-15T01:12:49.265Z,12.77
2018-02-15T01:15:18.662Z,14.68
2018-02-15T01:17:47.969Z,13.93
2018-02-15T01:20:17.253Z,14.05
2018-02-15T01:22:47.234Z,13.75
2018-02-15T01:25:16.570Z,13.82
2018-02-15T01:27:45.879Z,13.20
2018-02-15T01:30:15.157Z,13.77
2018-02-15T01:32:44.458Z,14.93
2018-02-15T01:35:14.575Z,15.18
2018-02-15T01:37:43.882Z,13.20
2018-02-15T01:40:13.988Z,13.73
2018-02-15T01:42:43.298Z,14.32
2018-02-15T01:45:12.612Z,14.48
2018-02-15T01:47:41.918Z,14.48
2018-02-15T01:50:11.888Z,15.00
2018-02-15T01:52:41.238Z,15.95
2018-02-15T01:55:10.558Z,14.95
2018-02-15T01:57:40.453Z,15.93
2018-02-15T02:00:10.596Z,15.02
2018-02-15T02:02:39.985Z,14.85
2018-02-15T02:05:09.284Z,15.82
2018-02-15T02:07:38.600Z,14.32
2018-02-15T02:10:07.935Z,13.23
2018-02-15T02:12:37.219Z,14.27
2018-02-15T02:15:06.564Z,13.60
2018-02-15T02:17:36.671Z,14.27
2018-02-15T02:20:05.926Z,15.55
2018-02-15T02:22:35.246Z,13.60
2018-02-15T02:25:04.523Z,13.38
2018-02-15T02:27:33.848Z,13.38
2018-02-15T02:30:03.151Z,14.80
2018-02-15T02:32:32.445Z,13.15
2018-02-15T02:35:01.762Z,12.52
2018-02-15T02:37:31.069Z,12.73
2018-02-15T02:40:00.371Z,12.93
2018-02-15T02:42:29.689Z,12.00
2018-02-15T02:44:59.763Z,12.55
2018-02-15T02:47:29.073Z,11.80
2018-02-15T02:49:58.379Z,10.85
2018-02-15T02:52:27.690Z,10.27
2018-02-15T02:54:57.015Z,12.18
2018-02-15T02:57:27.072Z,11.40
2018-02-15T02:59:56.388Z,11.25
2018-02-15T03:02:25.679Z,12.32
2018-02-15T03:04:55.002Z,12.25
2018-02-15T03:07:24.297Z,12.02
2018-02-15T03:09:53.581Z,10.75
2018-02-15T03:12:22.894Z,12.30
2018-02-15T03:14:52.201Z,11.77
2018-02-15T03:17:21.532Z,11.95
2018-02-15T03:19:51.597Z,13.20
2018-02-15T03:22:20.937Z,12.30
2018-02-15T03:24:50.256Z,12.90
2018-02-15T03:27:19.548Z,13.43
2018-02-15T03:29:49.626Z,12.50
2018-02-15T03:32:19.633Z,13.38
2018-02-15T03:34:48.952Z,12.20
2018-02-15T03:37:18.251Z,11.52
2018-02-15T03:39:47.540Z,11.38
2018-02-15T03:42:16.861Z,12.32
2018-02-15T03:44:46.179Z,11.30
2018-02-15T03:47:16.255Z,10.52
2018-02-15T03:49:45.594Z,10.68
2018-02-15T03:52:14.855Z,10.63
2018-02-15T03:54:44.155Z,10.63
2018-02-15T03:57:13.432Z,11.27
2018-02-15T03:59:42.761Z,10.48
2018-02-15T04:02:12.078Z,10.52
2018-02-15T04:04:41.365Z,10.88
2018-02-15T04:07:10.664Z,11.15
2018-02-15T04:09:40.023Z,11.10
2018-02-15T04:12:09.325Z,10.70
2018-02-15T04:14:38.618Z,11.20
2018-02-15T04:17:07.949Z,10.27
2018-02-15T04:19:37.268Z,11.25
2018-02-15T04:22:06.586Z,10.63
2018-02-15T04:24:36.818Z,10.35
2018-02-15T04:27:06.138Z,10.02
2018-02-15T04:29:36.221Z,11.00
2018-02-15T04:32:05.531Z,15.20
2018-02-15T04:34:34.858Z,11.25
2018-02-15T04:37:04.173Z,11.85
2018-02-15T04:39:33.964Z,10.57
2018-02-15T04:42:03.287Z,11.30
2018-02-15T04:44:32.576Z,12.50
2018-02-15T04:47:01.877Z,10.70
2018-02-15T04:49:31.946Z,10.32
2018-02-15T04:52:01.246Z,9.02
2018-02-15T04:54:30.584Z,9.70
2018-02-15T04:56:59.869Z,9.23
2018-02-15T04:59:29.197Z,8.25
2018-02-15T05:01:59.253Z,9.93
2018-02-15T05:04:28.566Z,10.43
2018-02-15T05:06:57.898Z,10.20
2018-02-15T05:09:27.195Z,9.65
2018-02-15T05:11:56.494Z,9.05
2018-02-15T05:14:25.802Z,10.05
2018-02-15T05:16:55.888Z,10.27
2018-02-15T05:19:25.206Z,11.52
2018-02-15T05:21:55.318Z,9.68
2018-02-15T05:24:24.641Z,11.10
2018-02-15T05:27:00.088Z,12.50
2018-02-15T05:29:34.461Z,11.18
2018-02-15T05:32:03.818Z,9.77
2018-02-15T05:34:34.030Z,12.10
2018-02-15T05:37:03.357Z,10.90
2018-02-15T05:39:34.347Z,11.57
2018-02-15T05:42:03.668Z,11.73
2018-02-15T05:44:37.252Z,11.60
2018-02-15T05:47:06.535Z,12.20
2018-02-15T05:49:35.831Z,12.00
2018-02-15T05:52:05.202Z,12.75
2018-02-15T05:54:34.576Z,12.23
2018-02-15T05:57:03.861Z,10.75
2018-02-15T05:59:33.187Z,12.95
2018-02-15T06:02:03.952Z,13.35
2018-02-15T06:04:33.304Z,14.65
2018-02-15T06:07:19.724Z,17.95
2018-02-15T06:10:05.682Z,14.77
2018-02-15T06:12:35.009Z,12.75
2018-02-15T06:15:04.332Z,14.70
2018-02-15T06:17:34.284Z,13.43
2018-02-15T06:20:04.690Z,13.80
2018-02-15T06:22:34.027Z,12.50
2018-02-15T06:25:04.198Z,14.45
2018-02-15T06:27:33.538Z,14.60
2018-02-15T06:30:04.506Z,14.13
2018-02-15T06:32:33.880Z,15.52
2018-02-15T06:35:03.929Z,14.93
2018-02-15T06:37:34.123Z,12.95
2018-02-15T06:40:03.457Z,13.90
2018-02-15T06:42:34.467Z,13.98
2018-02-15T06:45:03.859Z,14.87
2018-02-15T06:47:34.446Z,14.00
2018-02-15T06:50:03.951Z,14.68
2018-02-15T06:52:33.640Z,15.13
2018-02-15T06:55:03.006Z,14.23
2018-02-15T06:57:33.988Z,13.57
2018-02-15T07:00:03.295Z,14.70
2018-02-15T07:02:36.660Z,15.45
2018-02-15T07:05:05.981Z,13.45
2018-02-15T07:07:35.311Z,12.63
2018-02-15T07:10:04.654Z,15.43
2018-02-15T07:12:33.986Z,14.85
2018-02-15T07:15:03.313Z,15.18
2018-02-15T07:17:32.663Z,13.75
2018-02-15T07:20:01.976Z,12.60
2018-02-15T07:22:31.459Z,12.95
2018-02-15T07:25:01.380Z,12.85
2018-02-15T07:27:30.701Z,12.07
2018-02-15T07:30:00.033Z,12.20
2018-02-15T07:32:30.724Z,13.80
2018-02-15T07:35:00.045Z,12.95
2018-02-15T07:37:29.389Z,13.85
2018-02-15T07:39:58.739Z,11.93
2018-02-15T07:42:28.088Z,13.27
2018-02-15T07:44:57.460Z,12.40
2018-02-15T07:47:26.802Z,14.75
2018-02-15T07:50:08.428Z,12.23
2018-02-15T07:52:47.384Z,11.50
2018-02-15T07:55:17.479Z,10.82
2018-02-15T07:57:46.796Z,9.70
2018-02-15T08:00:16.882Z,9.43
2018-02-15T08:02:46.219Z,10.80
2018-02-15T08:05:15.547Z,10.02
2018-02-15T08:07:44.890Z,10.80
2018-02-15T08:10:14.238Z,9.57
2018-02-15T08:12:44.344Z,9.40
2018-02-15T08:15:14.438Z,9.20
2018-02-15T08:17:43.817Z,9.10
2018-02-15T08:20:13.120Z,10.18
2018-02-15T08:22:42.633Z,8.25
2018-02-15T08:25:12.178Z,9.02
2018-02-15T08:27:41.521Z,9.57
2018-02-15T08:30:10.825Z,9.45
2018-02-15T08:32:40.156Z,9.65
2018-02-15T08:35:09.602Z,10.02
2018-02-15T08:37:39.721Z,9.00
2018-02-15T08:40:12.110Z,8.75
2018-02-15T08:42:41.463Z,9.88
2018-02-15T08:45:10.774Z,9.95
2018-02-15T08:47:40.903Z,8.82
2018-02-15T08:50:11.010Z,9.80
2018-02-15T08:52:40.310Z,9.55
2018-02-15T08:55:09.646Z,9.48
2018-02-15T08:57:39.000Z,10.57
2018-02-15T09:00:08.318Z,9.57
2018-02-15T09:02:38.406Z,10.18
2018-02-15T09:05:07.733Z,10.18
2018-02-15T09:07:37.847Z,9.98
2018-02-15T09:10:07.175Z,11.43
2018-02-15T09:12:37.263Z,10.55
2018-02-15T09:15:06.618Z,11.25
2018-02-15T09:17:35.936Z,10.43
2018-02-15T09:20:05.260Z,10.18
2018-02-15T09:22:34.624Z,9.85
2018-02-15T09:25:03.974Z,10.27
2018-02-15T09:27:33.319Z,9.52
2018-02-15T09:30:02.646Z,10.48
2018-02-15T09:32:32.005Z,9.85
2018-02-15T09:35:02.087Z,9.38
2018-02-15T09:37:31.417Z,9.90
2018-02-15T09:40:01.510Z,10.02
2018-02-15T09:42:30.839Z,10.10
2018-02-15T09:45:00.183Z,11.12
2018-02-15T09:47:29.687Z,11.52
2018-02-15T09:49:59.041Z,11.60
2018-02-15T09:52:28.534Z,10.95
2018-02-15T09:54:57.859Z,11.20
2018-02-15T09:57:27.195Z,12.52
2018-02-15T09:59:56.553Z,13.50
2018-02-15T10:02:25.903Z,12.82
2018-02-15T10:04:56.107Z,13.15
2018-02-15T10:07:26.323Z,12.82
2018-02-15T10:09:55.823Z,11.38
2018-02-15T10:12:25.943Z,12.88
2018-02-15T10:14:55.263Z,12.85
2018-02-15T10:17:24.622Z,13.10
2018-02-15T10:19:56.943Z,12.23
2018-02-15T10:22:26.281Z,11.80
2018-02-15T10:24:55.613Z,12.98
2018-02-15T10:27:25.701Z,13.10
2018-02-15T10:29:55.040Z,14.05
2018-02-15T10:32:24.358Z,13.32
2018-02-15T10:34:53.695Z,13.30
2018-02-15T10:37:23.031Z,13.00
2018-02-15T10:39:52.358Z,14.10
2018-02-15T10:42:23.582Z,13.55
2018-02-15T10:44:52.919Z,13.98
2018-02-15T10:47:22.216Z,13.13
2018-02-15T10:49:51.517Z,13.57
2018-02-15T10:52:20.868Z,13.40
2018-02-15T10:54:50.280Z,13.65
2018-02-15T10:57:20.399Z,13.88
2018-02-15T10:59:49.735Z,14.25
2018-02-15T11:02:22.955Z,13.60
2018-02-15T11:04:57.787Z,13.23
2018-02-15T11:07:27.150Z,13.65
2018-02-15T11:09:56.473Z,14.20
2018-02-15T11:12:25.793Z,15.27
2018-02-15T11:14:55.139Z,14.75
2018-02-15T11:17:24.469Z,15.68
2018-02-15T11:19:53.820Z,16.58
2018-02-15T11:22:23.935Z,15.45
2018-02-15T11:24:53.282Z,16.12
2018-02-15T11:27:22.597Z,16.65
2018-02-15T11:29:51.935Z,16.30
2018-02-15T11:32:22.044Z,17.12
2018-02-15T11:34:51.350Z,16.02
2018-02-15T11:37:20.686Z,17.65
2018-02-15T11:39:50.004Z,17.87
2018-02-15T11:42:19.382Z,17.65
2018-02-15T11:44:49.493Z,18.50
2018-02-15T11:47:19.586Z,20.85
2018-02-15T11:49:48.934Z,18.05
2018-02-15T11:52:18.291Z,18.87
2018-02-15T11:54:51.665Z,19.95
2018-02-15T11:57:21.114Z,18.00
2018-02-15T11:59:50.453Z,21.67
2018-02-15T12:02:20.665Z,18.62
2018-02-15T12:04:50.287Z,19.83
2018-02-15T12:07:19.614Z,19.23
2018-02-15T12:09:48.950Z,18.95
2018-02-15T12:12:19.054Z,19.15
2018-02-15T12:14:48.567Z,20.62
2018-02-15T12:17:17.895Z,19.40
2018-02-15T12:19:47.231Z,20.25
2018-02-15T12:22:16.561Z,18.73
2018-02-15T12:24:45.899Z,18.70
2018-02-15T12:27:15.305Z,16.58
2018-02-15T12:29:44.663Z,16.45
2018-02-15T12:32:13.976Z,17.33
2018-02-15T12:34:43.336Z,14.25
2018-02-15T12:37:12.663Z,14.02
2018-02-15T12:39:41.994Z,15.02
2018-02-15T12:42:11.323Z,16.40
2018-02-15T12:44:40.658Z,15.40
2018-02-15T12:47:10.026Z,16.58
2018-02-15T12:49:39.371Z,14.40
2018-02-15T12:52:08.726Z,15.13
2018-02-15T12:54:38.080Z,15.68
2018-02-15T12:57:07.408Z,14.85
2018-02-15T12:59:36.726Z,15.23
2018-02-15T13:02:06.067Z,15.68
2018-02-15T13:04:35.472Z,14.43
2018-02-15T13:07:04.796Z,16.90
2018-02-15T13:09:34.139Z,15.43
2018-02-15T13:12:03.466Z,16.08
2018-02-15T13:14:32.786Z,17.42
2018-02-15T13:17:02.112Z,15.30
2018-02-15T13:19:49.957Z,16.62
2018-02-15T13:22:37.602Z,16.80
2018-02-15T13:25:06.946Z,17.12
2018-02-15T13:27:53.894Z,17.20
2018-02-15T13:30:23.302Z,14.93
2018-02-15T13:32:53.399Z,16.80
2018-02-15T13:35:23.647Z,16.23
2018-02-15T13:37:52.976Z,16.48
2018-02-15T13:40:22.276Z,17.75
2018-02-15T13:42:51.643Z,17.35
2018-02-15T13:45:20.982Z,16.23
2018-02-15T13:47:50.327Z,17.08
2018-02-15T13:50:19.678Z,16.85
2018-02-15T13:52:49.036Z,17.60
2018-02-15T13:55:18.353Z,16.87
2018-02-15T13:57:48.443Z,18.25
2018-02-15T14:00:17.779Z,16.52
2018-02-15T14:02:47.138Z,17.60
2018-02-15T14:05:16.488Z,16.25
2018-02-15T14:07:46.383Z,15.02
2018-02-15T14:10:16.471Z,15.32
2018-02-15T14:12:45.798Z,18.85
2018-02-15T14:15:16.018Z,17.52
2018-02-15T14:17:46.115Z,16.30
2018-02-15T14:20:15.445Z,17.05
2018-02-15T14:22:45.538Z,17.00
2018-02-15T14:25:14.881Z,15.20
2018-02-15T14:27:44.233Z,17.92
2018-02-15T14:30:13.592Z,16.95
2018-02-15T14:32:43.823Z,19.75
2018-02-15T14:35:13.179Z,16.87
2018-02-15T14:37:42.488Z,17.10
2018-02-15T14:40:12.600Z,17.00
2018-02-15T14:42:42.702Z,16.95
2018-02-15T14:45:12.831Z,16.92
2018-02-15T14:47:42.158Z,15.95
2018-02-15T14:50:12.253Z,16.08
2018-02-15T14:52:41.601Z,16.10
2018-02-15T14:55:11.050Z,16.98
2018-02-15T14:57:41.677Z,16.52
2018-02-15T15:00:11.014Z,17.73
2018-02-15T15:02:41.165Z,16.52
2018-02-15T15:05:10.600Z,16.45
2018-02-15T15:07:39.995Z,16.55
2018-02-15T15:10:09.321Z,15.88
2018-02-15T15:12:39.025Z,15.60
2018-02-15T15:15:08.375Z,15.40
2018-02-15T15:17:37.710Z,15.57
2018-02-15T15:20:07.254Z,17.17
2018-02-15T15:22:36.609Z,17.30
2018-02-15T15:25:05.950Z,16.30
2018-02-15T15:27:36.052Z,17.10
2018-02-15T15:30:05.386Z,16.25
2018-02-15T15:32:35.500Z,16.65
2018-02-15T15:35:04.841Z,17.55
2018-02-15T15:37:34.183Z,16.05
2018-02-15T15:40:03.586Z,17.52
2018-02-15T15:42:33.024Z,17.62
2018-02-15T15:45:02.465Z,16.02
2018-02-15T15:47:31.786Z,16.23
2018-02-15T15:50:01.123Z,16.95
2018-02-15T15:52:30.486Z,16.85
2018-02-15T15:55:00.272Z,17.40
2018-02-15T15:57:30.410Z,15.93
2018-02-15T15:59:59.777Z,15.90
2018-02-15T16:02:29.113Z,17.05
2018-02-15T16:04:58.483Z,16.70
2018-02-15T16:07:27.827Z,17.80
2018-02-15T16:09:57.156Z,16.70
2018-02-15T16:12:27.275Z,16.83
2018-02-15T16:14:57.349Z,16.90
2018-02-15T16:17:26.692Z,16.55
2018-02-15T16:19:56.006Z,17.27
2018-02-15T16:22:25.347Z,18.08
2018-02-15T16:24:54.660Z,18.12
2018-02-15T16:27:23.982Z,18.62
2018-02-15T16:29:54.094Z,17.85
2018-02-15T16:32:23.443Z,16.92
2018-02-15T16:34:53.007Z,16.37
2018-02-15T16:37:22.596Z,17.00
2018-02-15T16:39:51.957Z,17.52
2018-02-15T16:42:21.347Z,17.02
2018-02-15T16:44:50.679Z,19.27
2018-02-15T16:47:20.035Z,18.73
2018-02-15T16:49:49.403Z,19.80
2018-02-15T16:52:19.405Z,21.00
2018-02-15T16:54:49.819Z,24.35
2018-02-15T16:57:20.271Z,34.85
2018-02-15T16:59:50.559Z,21.12
2018-02-15T17:02:21.284Z,20.10
2018-02-15T17:04:51.298Z,19.67
2018-02-15T17:07:21.591Z,20.27
2018-02-15T17:09:52.036Z,18.85
2018-02-15T17:12:22.358Z,21.42
2018-02-15T17:14:53.020Z,19.05
2018-02-15T17:17:22.342Z,19.55
2018-02-15T17:19:51.698Z,18.30
2018-02-15T17:22:21.799Z,20.23
2018-02-15T17:24:51.906Z,21.58
2018-02-15T17:27:21.259Z,18.65
2018-02-15T17:29:50.626Z,17.67
2018-02-15T17:32:20.103Z,16.55
2018-02-15T17:34:49.734Z,19.80
2018-02-15T17:37:19.130Z,17.95
2018-02-15T17:39:48.469Z,17.40
2018-02-15T17:42:17.809Z,20.12
2018-02-15T17:44:47.239Z,19.42
2018-02-15T17:47:16.575Z,17.40
2018-02-15T17:49:45.903Z,16.83
2018-02-15T17:52:15.236Z,18.52
2018-02-15T17:54:44.574Z,18.20
2018-02-15T17:57:14.666Z,19.40
2018-02-15T17:59:44.028Z,17.42
2018-02-15T18:02:13.371Z,17.20
2018-02-15T18:04:42.702Z,17.95
2018-02-15T18:07:12.193Z,17.60
2018-02-15T18:09:42.290Z,17.10
2018-02-15T18:12:11.652Z,16.55
2018-02-15T18:14:40.979Z,19.52
2018-02-15T18:17:10.327Z,18.17
2018-02-15T18:19:40.428Z,18.02
2018-02-15T18:22:09.798Z,19.80
2018-02-15T18:24:39.122Z,19.40
2018-02-15T18:27:08.461Z,17.12
2018-02-15T18:29:37.854Z,20.58
2018-02-15T18:32:07.189Z,20.05
2018-02-15T18:34:36.523Z,18.40
2018-02-15T18:37:05.860Z,18.52
2018-02-15T18:39:35.215Z,18.45
2018-02-15T18:42:04.554Z,16.58
2018-02-15T18:44:33.908Z,18.60
2018-02-15T18:47:03.242Z,18.90
2018-02-15T18:49:32.649Z,22.92
2018-02-15T18:52:02.724Z,22.70
2018-02-15T18:54:35.507Z,21.37
2018-02-15T18:57:04.834Z,23.23
2018-02-15T18:59:34.183Z,21.85
2018-02-15T19:02:03.523Z,21.30
2018-02-15T19:04:32.839Z,19.37
2018-02-15T19:07:02.170Z,21.30
2018-02-15T19:09:32.311Z,19.75
2018-02-15T19:12:02.214Z,21.33
2018-02-15T19:14:32.520Z,21.23
2018-02-15T19:17:02.630Z,19.55
2018-02-15T19:19:31.939Z,19.90
2018-02-15T19:22:02.045Z,21.00
2018-02-15T19:24:32.169Z,19.02
2018-02-15T19:27:02.276Z,20.88
2018-02-15T19:29:31.608Z,21.08
2018-02-15T19:32:00.940Z,20.20
2018-02-15T19:34:30.332Z,20.55
2018-02-15T19:36:59.758Z,20.60
2018-02-15T19:39:29.226Z,19.75
2018-02-15T19:41:58.630Z,23.62
2018-02-15T19:44:27.970Z,22.42
2018-02-15T19:46:58.385Z,21.48
2018-02-15T19:49:27.769Z,22.50
2018-02-15T19:51:57.124Z,21.80
2018-02-15T19:54:26.567Z,21.90
2018-02-15T19:56:55.899Z,23.20
2018-02-15T19:59:26.190Z,21.70
2018-02-15T20:01:55.551Z,23.10
2018-02-15T20:04:24.992Z,22.25
2018-02-15T20:06:54.325Z,21.60
2018-02-15T20:09:23.649Z,23.12
2018-02-15T20:11:53.022Z,21.83
2018-02-15T20:14:22.468Z,21.83
2018-02-15T20:16:52.363Z,21.77
2018-02-15T20:19:22.578Z,21.83
2018-02-15T20:21:51.926Z,22.58
2018-02-15T20:24:22.066Z,24.23
2018-02-15T20:26:57.100Z,23.67
2018-02-15T20:29:26.405Z,21.90
2018-02-15T20:31:55.738Z,22.60
2018-02-15T20:34:25.071Z,23.55
2018-02-15T20:36:54.414Z,22.87
2018-02-15T20:39:29.268Z,23.38
2018-02-15T20:41:58.622Z,21.90
2018-02-15T20:44:28.099Z,21.58
2018-02-15T20:46:57.503Z,23.33
2018-02-15T20:49:32.294Z,24.52
2018-02-15T20:52:07.062Z,21.92
2018-02-15T20:54:41.830Z,24.80
2018-02-15T20:57:11.208Z,25.10
2018-02-15T20:59:41.302Z,24.20
2018-02-15T21:02:10.695Z,23.85
2018-02-15T21:04:40.022Z,24.00
2018-02-15T21:07:10.130Z,23.27
2018-02-15T21:09:39.453Z,23.55
2018-02-15T21:12:08.791Z,23.58
2018-02-15T21:14:39.226Z,23.08
2018-02-15T21:17:08.596Z,23.48
2018-02-15T21:19:37.926Z,25.98
2018-02-15T21:22:07.283Z,23.67
2018-02-15T21:24:36.725Z,23.67
2018-02-15T21:27:06.134Z,22.52
2018-02-15T21:29:36.349Z,23.02
2018-02-15T21:32:05.677Z,23.50
2018-02-15T21:34:35.007Z,22.87
2018-02-15T21:37:04.415Z,23.60
2018-02-15T21:39:35.235Z,26.67
2018-02-15T21:42:04.560Z,26.85
2018-02-15T21:44:34.187Z,25.00
2018-02-15T21:47:04.249Z,26.10
2018-02-15T21:49:33.611Z,23.83
2018-02-15T21:52:03.003Z,23.98
2018-02-15T21:54:32.365Z,23.30
2018-02-15T21:57:01.793Z,23.75
2018-02-15T21:59:32.048Z,24.30
2018-02-15T22:02:01.464Z,23.48
2018-02-15T22:04:30.814Z,21.73
2018-02-15T22:07:00.171Z,21.83
2018-02-15T22:09:29.552Z,23.42
2018-02-15T22:11:58.902Z,24.20
2018-02-15T22:14:29.010Z,24.25
2018-02-15T22:16:59.585Z,22.35
2018-02-15T22:19:28.884Z,22.33
2018-02-15T22:21:58.251Z,23.80
2018-02-15T22:24:27.548Z,24.67
2018-02-15T22:26:56.893Z,23.52
2018-02-15T22:29:26.243Z,23.60
2018-02-15T22:31:56.467Z,23.10
2018-02-15T22:34:26.474Z,23.65
2018-02-15T22:36:55.768Z,25.65
2018-02-15T22:39:25.104Z,23.25
2018-02-15T22:41:54.431Z,26.70
2018-02-15T22:44:23.739Z,22.83
2018-02-15T22:46:53.065Z,24.65
2018-02-15T22:49:22.351Z,24.85
2018-02-15T22:51:51.717Z,25.80
2018-02-15T22:54:21.037Z,24.08
2018-02-15T22:56:50.398Z,25.20
2018-02-15T22:59:21.716Z,27.40
2018-02-15T23:01:51.052Z,24.87
2018-02-15T23:04:21.026Z,24.05
2018-02-15T23:06:50.407Z,23.60
2018-02-15T23:09:19.730Z,21.35
2018-02-15T23:11:49.140Z,21.23
2018-02-15T23:14:18.647Z,23.02
2018-02-15T23:16:47.952Z,22.15
2018-02-15T23:19:17.240Z,19.95
2018-02-15T23:21:46.552Z,20.77
2018-02-15T23:24:15.835Z,20.88
2018-02-15T23:26:45.195Z,21.00
2018-02-15T23:29:14.512Z,22.65
2018-02-15T23:31:44.579Z,20.25
2018-02-15T23:34:13.979Z,20.98
2018-02-15T23:36:43.385Z,19.55
2018-02-15T23:39:13.452Z,20.20
2018-02-15T23:41:43.769Z,18.58
2018-02-15T23:44:14.064Z,18.30
2018-02-15T23:46:43.371Z,20.15
2018-02-15T23:49:12.703Z,18.95
2018-02-15T23:51:42.062Z,17.87
2018-02-15T23:54:11.385Z,18.65
2018-02-15T23:56:40.675Z,17.85
2018-02-15T23:59:10.806Z,15.43
